Guia Lopes Da Laguna, Brazil
Current Conditions -  °F | °C
As of 6:00 PM on Friday 24 Oct 2014 (Local Time) from SBCG Reporting Station
Rain Showers Rain Showers  
Wind Chill: 73°   Ceiling: Unl
Heat Index: 73°   Visibility: 6mi
Dew Point: 66°   Wind: 10mph
Humidity: 78%   Direction: 330°NNW
Pressure: NA   Gusts: NA
Location:  21.46°S, 56.11°W
Report Text: SBCG 242100Z 33009KT 9999 VCSH FEW012 FEW045TCU SCT100 23/19 Q1012
Loading
Personal Weather Stations






























Interactive Weather Map
Tropical Storm Tracking
New forecast layout! Learn more

10-Day Weather Forecast

Advertisements
Track Severe Weather on mobile